sensor_id;sensor_type;location;lat;lon;timestamp;P1;durP1;ratioP1;P2;durP2;ratioP2
3849;SDS011;1940;51.052;13.678;2022-12-18T00:01:47;30.30;;;12.40;;
3849;SDS011;1940;51.052;13.678;2022-12-18T00:04:23;25.73;;;10.80;;
3849;SDS011;1940;51.052;13.678;2022-12-18T00:06:50;21.10;;;9.83;;
3849;SDS011;1940;51.052;13.678;2022-12-18T00:09:16;22.83;;;10.90;;
3849;SDS011;1940;51.052;13.678;2022-12-18T00:11:41;19.60;;;10.43;;
3849;SDS011;1940;51.052;13.678;2022-12-18T00:14:08;21.60;;;10.57;;
3849;SDS011;1940;51.052;13.678;2022-12-18T00:16:35;23.27;;;10.60;;
3849;SDS011;1940;51.052;13.678;2022-12-18T00:19:02;23.23;;;10.87;;
3849;SDS011;1940;51.052;13.678;2022-12-18T00:21:28;22.73;;;11.10;;
3849;SDS011;1940;51.052;13.678;2022-12-18T00:23:55;20.83;;;10.57;;
3849;SDS011;1940;51.052;13.678;2022-12-18T00:26:22;19.97;;;10.37;;
3849;SDS011;1940;51.052;13.678;2022-12-18T00:28:53;25.53;;;11.80;;
3849;SDS011;1940;51.052;13.678;2022-12-18T00:31:21;15.60;;;8.47;;
3849;SDS011;1940;51.052;13.678;2022-12-18T00:33:48;22.73;;;10.00;;
3849;SDS011;1940;51.052;13.678;2022-12-18T00:36:15;18.97;;;9.97;;
3849;SDS011;1940;51.052;13.678;2022-12-18T00:38:43;26.93;;;10.93;;
3849;SDS011;1940;51.052;13.678;2022-12-18T00:41:10;21.80;;;9.90;;
3849;SDS011;1940;51.052;13.678;2022-12-18T00:43:37;23.10;;;11.30;;
3849;SDS011;1940;51.052;13.678;2022-12-18T00:46:03;24.27;;;11.13;;
3849;SDS011;1940;51.052;13.678;2022-12-18T00:48:30;26.00;;;11.63;;
3849;SDS011;1940;51.052;13.678;2022-12-18T00:50:56;23.00;;;11.07;;
3849;SDS011;1940;51.052;13.678;2022-12-18T00:53:22;22.13;;;9.70;;
3849;SDS011;1940;51.052;13.678;2022-12-18T00:55:47;26.80;;;10.77;;
3849;SDS011;1940;51.052;13.678;2022-12-18T00:58:14;26.40;;;10.27;;
3849;SDS011;1940;51.052;13.678;2022-12-18T01:00:40;23.60;;;11.10;;
3849;SDS011;1940;51.052;13.678;2022-12-18T01:03:07;23.07;;;11.40;;
3849;SDS011;1940;51.052;13.678;2022-12-18T01:05:33;25.83;;;11.30;;
3849;SDS011;1940;51.052;13.678;2022-12-18T01:07:58;20.60;;;10.83;;
3849;SDS011;1940;51.052;13.678;2022-12-18T01:10:24;23.50;;;10.87;;
3849;SDS011;1940;51.052;13.678;2022-12-18T01:12:50;20.97;;;10.73;;
3849;SDS011;1940;51.052;13.678;2022-12-18T01:15:16;28.03;;;11.47;;
3849;SDS011;1940;51.052;13.678;2022-12-18T01:17:42;20.17;;;9.70;;
3849;SDS011;1940;51.052;13.678;2022-12-18T01:20:08;23.20;;;11.13;;
3849;SDS011;1940;51.052;13.678;2022-12-18T01:22:35;20.70;;;8.03;;
3849;SDS011;1940;51.052;13.678;2022-12-18T01:25:01;16.50;;;8.00;;
3849;SDS011;1940;51.052;13.678;2022-12-18T01:27:28;20.80;;;9.20;;
3849;SDS011;1940;51.052;13.678;2022-12-18T01:29:54;16.30;;;7.90;;
3849;SDS011;1940;51.052;13.678;2022-12-18T01:32:20;21.83;;;8.73;;
3849;SDS011;1940;51.052;13.678;2022-12-18T01:34:46;18.90;;;7.70;;
3849;SDS011;1940;51.052;13.678;2022-12-18T01:37:12;19.20;;;8.23;;
3849;SDS011;1940;51.052;13.678;2022-12-18T01:39:38;17.87;;;7.93;;
3849;SDS011;1940;51.052;13.678;2022-12-18T01:42:05;16.17;;;8.50;;
3849;SDS011;1940;51.052;13.678;2022-12-18T01:49:53;19.43;;;9.60;;
3849;SDS011;1940;51.052;13.678;2022-12-18T01:52:20;18.47;;;9.07;;
3849;SDS011;1940;51.052;13.678;2022-12-18T01:54:47;19.53;;;8.60;;
3849;SDS011;1940;51.052;13.678;2022-12-18T01:57:15;17.13;;;7.67;;
3849;SDS011;1940;51.052;13.678;2022-12-18T01:59:41;16.93;;;8.00;;
3849;SDS011;1940;51.052;13.678;2022-12-18T02:02:09;18.73;;;8.20;;
3849;SDS011;1940;51.052;13.678;2022-12-18T02:04:34;15.50;;;7.80;;
3849;SDS011;1940;51.052;13.678;2022-12-18T02:07:06;19.87;;;8.60;;
3849;SDS011;1940;51.052;13.678;2022-12-18T02:09:57;20.37;;;8.33;;
3849;SDS011;1940;51.052;13.678;2022-12-18T02:15:22;18.60;;;7.03;;
3849;SDS011;1940;51.052;13.678;2022-12-18T02:18:03;16.37;;;7.67;;
3849;SDS011;1940;51.052;13.678;2022-12-18T02:20:35;14.80;;;7.50;;
3849;SDS011;1940;51.052;13.678;2022-12-18T02:23:12;18.20;;;7.80;;
3849;SDS011;1940;51.052;13.678;2022-12-18T02:28:28;15.77;;;7.17;;
3849;SDS011;1940;51.052;13.678;2022-12-18T02:30:57;13.20;;;7.30;;
3849;SDS011;1940;51.052;13.678;2022-12-18T02:33:27;16.23;;;7.57;;
3849;SDS011;1940;51.052;13.678;2022-12-18T02:35:54;17.80;;;8.47;;
3849;SDS011;1940;51.052;13.678;2022-12-18T02:38:23;16.20;;;6.90;;
3849;SDS011;1940;51.052;13.678;2022-12-18T02:40:49;13.93;;;6.87;;
3849;SDS011;1940;51.052;13.678;2022-12-18T02:43:18;20.27;;;7.47;;
3849;SDS011;1940;51.052;13.678;2022-12-18T02:45:47;12.60;;;7.20;;
3849;SDS011;1940;51.052;13.678;2022-12-18T02:48:17;13.50;;;6.60;;
3849;SDS011;1940;51.052;13.678;2022-12-18T02:50:45;13.50;;;6.57;;
3849;SDS011;1940;51.052;13.678;2022-12-18T02:53:47;12.70;;;5.63;;
3849;SDS011;1940;51.052;13.678;2022-12-18T02:56:26;18.03;;;8.30;;
3849;SDS011;1940;51.052;13.678;2022-12-18T02:59:11;15.40;;;6.77;;
3849;SDS011;1940;51.052;13.678;2022-12-18T03:04:22;12.43;;;7.53;;
3849;SDS011;1940;51.052;13.678;2022-12-18T03:06:55;16.00;;;6.27;;
3849;SDS011;1940;51.052;13.678;2022-12-18T03:09:28;17.73;;;6.73;;
3849;SDS011;1940;51.052;13.678;2022-12-18T03:12:14;13.80;;;7.20;;
3849;SDS011;1940;51.052;13.678;2022-12-18T03:15:01;16.10;;;7.07;;
3849;SDS011;1940;51.052;13.678;2022-12-18T03:17:47;13.13;;;6.97;;
3849;SDS011;1940;51.052;13.678;2022-12-18T03:20:34;12.77;;;6.50;;
3849;SDS011;1940;51.052;13.678;2022-12-18T03:23:04;12.63;;;5.93;;
3849;SDS011;1940;51.052;13.678;2022-12-18T03:25:38;11.63;;;5.90;;
3849;SDS011;1940;51.052;13.678;2022-12-18T03:28:06;15.90;;;6.27;;
3849;SDS011;1940;51.052;13.678;2022-12-18T03:30:39;13.50;;;6.57;;
3849;SDS011;1940;51.052;13.678;2022-12-18T03:35:39;10.90;;;6.23;;
3849;SDS011;1940;51.052;13.678;2022-12-18T03:38:06;12.53;;;5.93;;
3849;SDS011;1940;51.052;13.678;2022-12-18T03:40:53;12.87;;;6.27;;
3849;SDS011;1940;51.052;13.678;2022-12-18T03:43:36;14.23;;;6.60;;
3849;SDS011;1940;51.052;13.678;2022-12-18T03:46:08;9.70;;;5.70;;
3849;SDS011;1940;51.052;13.678;2022-12-18T03:48:43;10.57;;;5.83;;
3849;SDS011;1940;51.052;13.678;2022-12-18T03:51:21;14.83;;;6.00;;
3849;SDS011;1940;51.052;13.678;2022-12-18T03:53:51;12.83;;;6.20;;
3849;SDS011;1940;51.052;13.678;2022-12-18T03:56:25;12.47;;;6.60;;
3849;SDS011;1940;51.052;13.678;2022-12-18T03:58:54;12.53;;;7.03;;
3849;SDS011;1940;51.052;13.678;2022-12-18T04:01:22;14.20;;;5.57;;
3849;SDS011;1940;51.052;13.678;2022-12-18T04:03:53;13.03;;;5.70;;
3849;SDS011;1940;51.052;13.678;2022-12-18T04:06:20;12.37;;;5.53;;
3849;SDS011;1940;51.052;13.678;2022-12-18T04:08:46;13.27;;;5.73;;
3849;SDS011;1940;51.052;13.678;2022-12-18T04:11:12;18.30;;;6.00;;
3849;SDS011;1940;51.052;13.678;2022-12-18T04:13:38;10.20;;;5.57;;
3849;SDS011;1940;51.052;13.678;2022-12-18T04:16:04;9.23;;;4.97;;
3849;SDS011;1940;51.052;13.678;2022-12-18T04:18:30;9.20;;;4.97;;
3849;SDS011;1940;51.052;13.678;2022-12-18T04:20:56;10.27;;;5.00;;
3849;SDS011;1940;51.052;13.678;2022-12-18T04:23:21;7.63;;;4.50;;
3849;SDS011;1940;51.052;13.678;2022-12-18T04:25:47;7.70;;;4.60;;
3849;SDS011;1940;51.052;13.678;2022-12-18T04:28:13;9.37;;;5.30;;
3849;SDS011;1940;51.052;13.678;2022-12-18T04:30:38;9.60;;;5.00;;
3849;SDS011;1940;51.052;13.678;2022-12-18T04:33:05;7.77;;;4.23;;
3849;SDS011;1940;51.052;13.678;2022-12-18T04:35:34;7.27;;;4.30;;
3849;SDS011;1940;51.052;13.678;2022-12-18T04:37:59;16.50;;;5.80;;
3849;SDS011;1940;51.052;13.678;2022-12-18T04:40:25;7.83;;;4.70;;
3849;SDS011;1940;51.052;13.678;2022-12-18T04:42:50;6.73;;;3.97;;
3849;SDS011;1940;51.052;13.678;2022-12-18T04:45:16;5.50;;;3.67;;
3849;SDS011;1940;51.052;13.678;2022-12-18T04:47:41;6.10;;;3.40;;
3849;SDS011;1940;51.052;13.678;2022-12-18T04:50:07;7.40;;;3.93;;
3849;SDS011;1940;51.052;13.678;2022-12-18T04:52:32;9.03;;;4.57;;
3849;SDS011;1940;51.052;13.678;2022-12-18T04:54:58;8.97;;;4.60;;
3849;SDS011;1940;51.052;13.678;2022-12-18T04:57:23;8.33;;;4.87;;
3849;SDS011;1940;51.052;13.678;2022-12-18T04:59:49;9.27;;;4.23;;
3849;SDS011;1940;51.052;13.678;2022-12-18T05:02:14;7.40;;;3.63;;
3849;SDS011;1940;51.052;13.678;2022-12-18T05:04:40;8.33;;;5.03;;
3849;SDS011;1940;51.052;13.678;2022-12-18T05:07:06;6.43;;;3.63;;
3849;SDS011;1940;51.052;13.678;2022-12-18T05:09:31;7.13;;;4.30;;
3849;SDS011;1940;51.052;13.678;2022-12-18T05:11:57;8.47;;;4.67;;
3849;SDS011;1940;51.052;13.678;2022-12-18T05:14:22;9.03;;;3.93;;
3849;SDS011;1940;51.052;13.678;2022-12-18T05:16:48;6.70;;;4.40;;
3849;SDS011;1940;51.052;13.678;2022-12-18T05:19:13;7.53;;;4.57;;
3849;SDS011;1940;51.052;13.678;2022-12-18T05:21:39;10.80;;;4.00;;
3849;SDS011;1940;51.052;13.678;2022-12-18T05:24:04;8.13;;;3.80;;
3849;SDS011;1940;51.052;13.678;2022-12-18T05:26:30;8.77;;;3.90;;
3849;SDS011;1940;51.052;13.678;2022-12-18T05:28:56;5.87;;;4.10;;
3849;SDS011;1940;51.052;13.678;2022-12-18T05:31:21;6.30;;;3.53;;
3849;SDS011;1940;51.052;13.678;2022-12-18T05:33:47;5.30;;;3.73;;
3849;SDS011;1940;51.052;13.678;2022-12-18T05:36:13;10.70;;;3.67;;
3849;SDS011;1940;51.052;13.678;2022-12-18T05:38:38;5.93;;;3.90;;
3849;SDS011;1940;51.052;13.678;2022-12-18T05:41:04;5.80;;;3.37;;
3849;SDS011;1940;51.052;13.678;2022-12-18T05:43:30;7.03;;;3.80;;
3849;SDS011;1940;51.052;13.678;2022-12-18T05:46:01;5.40;;;3.50;;
3849;SDS011;1940;51.052;13.678;2022-12-18T05:48:31;5.50;;;3.83;;
3849;SDS011;1940;51.052;13.678;2022-12-18T05:51:02;5.87;;;3.33;;
3849;SDS011;1940;51.052;13.678;2022-12-18T05:53:30;8.33;;;4.37;;
3849;SDS011;1940;51.052;13.678;2022-12-18T05:55:59;5.13;;;3.20;;
3849;SDS011;1940;51.052;13.678;2022-12-18T05:58:25;6.63;;;3.50;;
3849;SDS011;1940;51.052;13.678;2022-12-18T06:00:51;4.13;;;2.77;;
3849;SDS011;1940;51.052;13.678;2022-12-18T06:03:16;6.37;;;3.63;;
3849;SDS011;1940;51.052;13.678;2022-12-18T06:05:43;6.80;;;4.10;;
3849;SDS011;1940;51.052;13.678;2022-12-18T06:08:11;6.63;;;3.90;;
3849;SDS011;1940;51.052;13.678;2022-12-18T06:10:38;5.40;;;3.53;;
3849;SDS011;1940;51.052;13.678;2022-12-18T06:13:06;7.37;;;3.50;;
3849;SDS011;1940;51.052;13.678;2022-12-18T06:15:32;9.00;;;3.83;;
3849;SDS011;1940;51.052;13.678;2022-12-18T06:18:03;9.00;;;4.53;;
3849;SDS011;1940;51.052;13.678;2022-12-18T06:20:28;5.47;;;3.70;;
3849;SDS011;1940;51.052;13.678;2022-12-18T06:22:54;7.00;;;3.40;;
3849;SDS011;1940;51.052;13.678;2022-12-18T06:25:19;5.50;;;3.87;;
3849;SDS011;1940;51.052;13.678;2022-12-18T06:27:46;6.40;;;4.03;;
3849;SDS011;1940;51.052;13.678;2022-12-18T06:30:13;7.67;;;4.07;;
3849;SDS011;1940;51.052;13.678;2022-12-18T06:32:38;7.87;;;3.90;;
3849;SDS011;1940;51.052;13.678;2022-12-18T06:35:04;6.90;;;3.93;;
3849;SDS011;1940;51.052;13.678;2022-12-18T06:37:30;6.50;;;3.57;;
3849;SDS011;1940;51.052;13.678;2022-12-18T06:39:56;4.90;;;3.60;;
3849;SDS011;1940;51.052;13.678;2022-12-18T06:42:22;5.87;;;3.90;;
3849;SDS011;1940;51.052;13.678;2022-12-18T06:44:49;13.70;;;4.93;;
3849;SDS011;1940;51.052;13.678;2022-12-18T06:47:15;7.70;;;4.73;;
3849;SDS011;1940;51.052;13.678;2022-12-18T06:49:41;6.73;;;3.97;;
3849;SDS011;1940;51.052;13.678;2022-12-18T06:52:06;6.80;;;3.77;;
3849;SDS011;1940;51.052;13.678;2022-12-18T06:54:32;7.70;;;3.50;;
3849;SDS011;1940;51.052;13.678;2022-12-18T06:56:57;5.83;;;3.10;;
3849;SDS011;1940;51.052;13.678;2022-12-18T06:59:24;8.73;;;4.10;;
3849;SDS011;1940;51.052;13.678;2022-12-18T07:01:49;11.00;;;4.10;;
3849;SDS011;1940;51.052;13.678;2022-12-18T07:04:15;5.80;;;3.77;;
3849;SDS011;1940;51.052;13.678;2022-12-18T07:06:40;6.20;;;3.93;;
3849;SDS011;1940;51.052;13.678;2022-12-18T07:09:06;7.63;;;3.90;;
3849;SDS011;1940;51.052;13.678;2022-12-18T07:11:32;8.80;;;4.43;;
3849;SDS011;1940;51.052;13.678;2022-12-18T07:13:58;8.03;;;3.53;;
3849;SDS011;1940;51.052;13.678;2022-12-18T07:16:24;8.83;;;4.30;;
3849;SDS011;1940;51.052;13.678;2022-12-18T07:18:50;6.23;;;4.27;;
3849;SDS011;1940;51.052;13.678;2022-12-18T07:21:17;47.33;;;20.27;;
3849;SDS011;1940;51.052;13.678;2022-12-18T07:23:44;13.40;;;6.40;;
3849;SDS011;1940;51.052;13.678;2022-12-18T07:26:13;9.13;;;4.87;;
3849;SDS011;1940;51.052;13.678;2022-12-18T07:28:40;10.93;;;5.20;;
3849;SDS011;1940;51.052;13.678;2022-12-18T07:31:07;6.43;;;4.60;;
3849;SDS011;1940;51.052;13.678;2022-12-18T07:33:38;8.73;;;4.70;;
3849;SDS011;1940;51.052;13.678;2022-12-18T07:36:05;12.40;;;4.43;;
3849;SDS011;1940;51.052;13.678;2022-12-18T07:38:33;9.07;;;4.37;;
3849;SDS011;1940;51.052;13.678;2022-12-18T07:41:05;7.10;;;4.43;;
3849;SDS011;1940;51.052;13.678;2022-12-18T07:43:37;8.17;;;4.43;;
3849;SDS011;1940;51.052;13.678;2022-12-18T07:46:04;9.43;;;4.90;;
3849;SDS011;1940;51.052;13.678;2022-12-18T07:48:31;10.37;;;4.80;;
3849;SDS011;1940;51.052;13.678;2022-12-18T07:51:00;9.80;;;5.33;;
3849;SDS011;1940;51.052;13.678;2022-12-18T07:53:26;11.47;;;5.00;;
3849;SDS011;1940;51.052;13.678;2022-12-18T07:55:56;7.63;;;4.90;;
3849;SDS011;1940;51.052;13.678;2022-12-18T07:58:22;9.13;;;5.17;;
3849;SDS011;1940;51.052;13.678;2022-12-18T08:00:48;12.57;;;5.53;;
3849;SDS011;1940;51.052;13.678;2022-12-18T08:03:13;12.63;;;6.23;;
3849;SDS011;1940;51.052;13.678;2022-12-18T08:05:39;12.27;;;6.63;;
3849;SDS011;1940;51.052;13.678;2022-12-18T08:08:04;13.10;;;5.90;;
3849;SDS011;1940;51.052;13.678;2022-12-18T08:10:30;18.83;;;7.27;;
3849;SDS011;1940;51.052;13.678;2022-12-18T08:12:55;13.90;;;6.67;;
3849;SDS011;1940;51.052;13.678;2022-12-18T08:15:21;13.13;;;6.80;;
3849;SDS011;1940;51.052;13.678;2022-12-18T08:17:47;11.37;;;5.97;;
3849;SDS011;1940;51.052;13.678;2022-12-18T08:20:12;12.27;;;6.43;;
3849;SDS011;1940;51.052;13.678;2022-12-18T08:22:39;12.43;;;7.00;;
3849;SDS011;1940;51.052;13.678;2022-12-18T08:25:08;12.13;;;6.83;;
3849;SDS011;1940;51.052;13.678;2022-12-18T08:27:34;14.57;;;8.30;;
3849;SDS011;1940;51.052;13.678;2022-12-18T08:29:59;16.40;;;9.07;;
3849;SDS011;1940;51.052;13.678;2022-12-18T08:32:26;19.80;;;9.97;;
3849;SDS011;1940;51.052;13.678;2022-12-18T08:34:52;17.93;;;9.23;;
3849;SDS011;1940;51.052;13.678;2022-12-18T08:37:18;20.23;;;9.97;;
3849;SDS011;1940;51.052;13.678;2022-12-18T08:39:43;18.77;;;10.43;;
3849;SDS011;1940;51.052;13.678;2022-12-18T08:42:09;16.53;;;9.73;;
3849;SDS011;1940;51.052;13.678;2022-12-18T08:44:53;20.53;;;10.50;;
3849;SDS011;1940;51.052;13.678;2022-12-18T08:47:19;18.60;;;9.80;;
3849;SDS011;1940;51.052;13.678;2022-12-18T08:49:44;21.20;;;10.27;;
3849;SDS011;1940;51.052;13.678;2022-12-18T08:52:10;19.20;;;10.20;;
3849;SDS011;1940;51.052;13.678;2022-12-18T08:54:36;23.57;;;11.50;;
3849;SDS011;1940;51.052;13.678;2022-12-18T08:57:01;19.30;;;10.60;;
3849;SDS011;1940;51.052;13.678;2022-12-18T08:59:27;18.70;;;10.73;;
3849;SDS011;1940;51.052;13.678;2022-12-18T09:01:54;15.77;;;9.47;;
3849;SDS011;1940;51.052;13.678;2022-12-18T09:04:20;18.03;;;9.83;;
3849;SDS011;1940;51.052;13.678;2022-12-18T09:06:46;17.77;;;9.90;;
3849;SDS011;1940;51.052;13.678;2022-12-18T09:09:12;20.90;;;10.80;;
3849;SDS011;1940;51.052;13.678;2022-12-18T09:11:37;22.43;;;11.87;;
3849;SDS011;1940;51.052;13.678;2022-12-18T09:14:03;19.20;;;10.50;;
3849;SDS011;1940;51.052;13.678;2022-12-18T09:16:29;20.40;;;11.03;;
3849;SDS011;1940;51.052;13.678;2022-12-18T09:18:56;20.47;;;11.23;;
3849;SDS011;1940;51.052;13.678;2022-12-18T09:21:25;23.13;;;11.60;;
3849;SDS011;1940;51.052;13.678;2022-12-18T09:23:53;18.97;;;11.50;;
3849;SDS011;1940;51.052;13.678;2022-12-18T09:26:23;21.83;;;12.43;;
3849;SDS011;1940;51.052;13.678;2022-12-18T09:28:49;24.53;;;12.63;;
3849;SDS011;1940;51.052;13.678;2022-12-18T09:31:16;24.97;;;11.50;;
3849;SDS011;1940;51.052;13.678;2022-12-18T09:33:44;24.60;;;13.60;;
3849;SDS011;1940;51.052;13.678;2022-12-18T09:36:13;23.13;;;12.50;;
3849;SDS011;1940;51.052;13.678;2022-12-18T09:38:40;26.00;;;13.10;;
3849;SDS011;1940;51.052;13.678;2022-12-18T09:44:05;21.97;;;12.53;;
3849;SDS011;1940;51.052;13.678;2022-12-18T09:46:46;25.87;;;13.23;;
3849;SDS011;1940;51.052;13.678;2022-12-18T09:49:18;23.50;;;12.70;;
3849;SDS011;1940;51.052;13.678;2022-12-18T09:51:49;27.90;;;12.47;;
3849;SDS011;1940;51.052;13.678;2022-12-18T09:54:23;26.57;;;13.17;;
3849;SDS011;1940;51.052;13.678;2022-12-18T09:57:12;33.87;;;13.80;;
3849;SDS011;1940;51.052;13.678;2022-12-18T09:59:40;25.03;;;12.53;;
3849;SDS011;1940;51.052;13.678;2022-12-18T10:02:15;25.30;;;13.17;;
3849;SDS011;1940;51.052;13.678;2022-12-18T10:04:43;31.90;;;13.00;;
3849;SDS011;1940;51.052;13.678;2022-12-18T10:12:57;28.93;;;14.03;;
3849;SDS011;1940;51.052;13.678;2022-12-18T10:21:13;25.63;;;13.20;;
3849;SDS011;1940;51.052;13.678;2022-12-18T10:26:22;23.93;;;13.27;;
3849;SDS011;1940;51.052;13.678;2022-12-18T10:28:49;29.93;;;14.40;;
3849;SDS011;1940;51.052;13.678;2022-12-18T10:31:17;28.43;;;13.70;;
3849;SDS011;1940;51.052;13.678;2022-12-18T10:33:45;37.50;;;14.60;;
3849;SDS011;1940;51.052;13.678;2022-12-18T10:36:11;31.80;;;14.03;;
3849;SDS011;1940;51.052;13.678;2022-12-18T10:38:37;30.50;;;15.40;;
3849;SDS011;1940;51.052;13.678;2022-12-18T10:41:05;27.50;;;12.93;;
3849;SDS011;1940;51.052;13.678;2022-12-18T10:43:39;32.53;;;13.77;;
3849;SDS011;1940;51.052;13.678;2022-12-18T10:48:47;26.30;;;13.83;;
3849;SDS011;1940;51.052;13.678;2022-12-18T10:51:23;31.00;;;14.63;;
3849;SDS011;1940;51.052;13.678;2022-12-18T10:56:27;33.20;;;13.30;;
3849;SDS011;1940;51.052;13.678;2022-12-18T10:58:59;28.53;;;14.40;;
3849;SDS011;1940;51.052;13.678;2022-12-18T11:01:27;28.73;;;14.60;;
3849;SDS011;1940;51.052;13.678;2022-12-18T11:06:22;27.83;;;12.53;;
3849;SDS011;1940;51.052;13.678;2022-12-18T11:11:24;22.30;;;11.50;;
3849;SDS011;1940;51.052;13.678;2022-12-18T11:14:06;25.20;;;12.30;;
3849;SDS011;1940;51.052;13.678;2022-12-18T11:16:44;32.40;;;14.33;;
3849;SDS011;1940;51.052;13.678;2022-12-18T11:19:18;28.00;;;13.40;;
3849;SDS011;1940;51.052;13.678;2022-12-18T11:21:48;28.20;;;13.70;;
3849;SDS011;1940;51.052;13.678;2022-12-18T11:24:26;31.43;;;14.90;;
3849;SDS011;1940;51.052;13.678;2022-12-18T11:27:04;27.30;;;13.37;;
3849;SDS011;1940;51.052;13.678;2022-12-18T11:29:32;31.13;;;14.00;;
3849;SDS011;1940;51.052;13.678;2022-12-18T11:32:22;29.37;;;13.67;;
3849;SDS011;1940;51.052;13.678;2022-12-18T11:34:53;33.27;;;15.17;;
3849;SDS011;1940;51.052;13.678;2022-12-18T11:37:24;25.57;;;13.37;;
3849;SDS011;1940;51.052;13.678;2022-12-18T11:40:06;27.67;;;12.40;;
3849;SDS011;1940;51.052;13.678;2022-12-18T11:43:25;30.17;;;14.50;;
3849;SDS011;1940;51.052;13.678;2022-12-18T11:45:30;29.83;;;12.87;;
3849;SDS011;1940;51.052;13.678;2022-12-18T11:48:03;29.00;;;14.30;;
3849;SDS011;1940;51.052;13.678;2022-12-18T11:50:41;30.10;;;13.77;;
3849;SDS011;1940;51.052;13.678;2022-12-18T11:53:15;30.73;;;13.20;;
3849;SDS011;1940;51.052;13.678;2022-12-18T11:58:32;26.00;;;13.23;;
3849;SDS011;1940;51.052;13.678;2022-12-18T12:01:18;31.80;;;13.20;;
3849;SDS011;1940;51.052;13.678;2022-12-18T12:12:34;28.67;;;12.07;;
3849;SDS011;1940;51.052;13.678;2022-12-18T12:26:49;24.93;;;10.67;;
3849;SDS011;1940;51.052;13.678;2022-12-18T12:29:30;19.60;;;10.00;;
3849;SDS011;1940;51.052;13.678;2022-12-18T12:32:22;24.97;;;10.37;;
3849;SDS011;1940;51.052;13.678;2022-12-18T12:38:06;24.80;;;10.67;;
3849;SDS011;1940;51.052;13.678;2022-12-18T12:40:52;26.07;;;10.10;;
3849;SDS011;1940;51.052;13.678;2022-12-18T12:46:00;25.67;;;10.83;;
3849;SDS011;1940;51.052;13.678;2022-12-18T12:51:19;27.07;;;10.50;;
3849;SDS011;1940;51.052;13.678;2022-12-18T12:53:47;22.37;;;9.40;;
3849;SDS011;1940;51.052;13.678;2022-12-18T12:56:14;24.83;;;10.40;;
3849;SDS011;1940;51.052;13.678;2022-12-18T13:01:32;24.97;;;11.50;;
3849;SDS011;1940;51.052;13.678;2022-12-18T13:06:46;26.83;;;10.67;;
3849;SDS011;1940;51.052;13.678;2022-12-18T13:09:21;27.73;;;10.70;;
3849;SDS011;1940;51.052;13.678;2022-12-18T13:11:47;24.60;;;10.07;;
3849;SDS011;1940;51.052;13.678;2022-12-18T13:14:37;20.43;;;8.90;;
3849;SDS011;1940;51.052;13.678;2022-12-18T13:19:48;24.20;;;10.00;;
3849;SDS011;1940;51.052;13.678;2022-12-18T13:22:57;23.90;;;10.17;;
3849;SDS011;1940;51.052;13.678;2022-12-18T13:30:42;27.63;;;10.23;;
3849;SDS011;1940;51.052;13.678;2022-12-18T13:35:41;23.97;;;11.13;;
3849;SDS011;1940;51.052;13.678;2022-12-18T13:41:00;27.77;;;11.20;;
3849;SDS011;1940;51.052;13.678;2022-12-18T13:43:49;22.00;;;9.73;;
3849;SDS011;1940;51.052;13.678;2022-12-18T13:51:43;23.97;;;10.83;;
3849;SDS011;1940;51.052;13.678;2022-12-18T13:56:49;24.17;;;10.10;;
3849;SDS011;1940;51.052;13.678;2022-12-18T14:01:41;30.90;;;11.47;;
3849;SDS011;1940;51.052;13.678;2022-12-18T14:04:09;26.90;;;10.87;;
3849;SDS011;1940;51.052;13.678;2022-12-18T14:06:46;21.97;;;10.60;;
3849;SDS011;1940;51.052;13.678;2022-12-18T14:09:15;23.60;;;10.27;;
3849;SDS011;1940;51.052;13.678;2022-12-18T14:11:48;25.00;;;10.13;;
3849;SDS011;1940;51.052;13.678;2022-12-18T14:14:16;24.30;;;10.50;;
3849;SDS011;1940;51.052;13.678;2022-12-18T14:16:42;23.67;;;9.80;;
3849;SDS011;1940;51.052;13.678;2022-12-18T14:19:13;22.77;;;9.50;;
3849;SDS011;1940;51.052;13.678;2022-12-18T14:21:44;23.50;;;10.50;;
3849;SDS011;1940;51.052;13.678;2022-12-18T14:24:13;24.30;;;10.10;;
3849;SDS011;1940;51.052;13.678;2022-12-18T14:26:43;25.50;;;10.27;;
3849;SDS011;1940;51.052;13.678;2022-12-18T14:29:26;23.73;;;9.63;;
3849;SDS011;1940;51.052;13.678;2022-12-18T14:32:10;21.50;;;9.43;;
3849;SDS011;1940;51.052;13.678;2022-12-18T14:34:38;20.37;;;9.23;;
3849;SDS011;1940;51.052;13.678;2022-12-18T14:37:04;22.93;;;11.60;;
3849;SDS011;1940;51.052;13.678;2022-12-18T14:39:34;19.50;;;10.37;;
3849;SDS011;1940;51.052;13.678;2022-12-18T14:41:59;17.80;;;8.27;;
3849;SDS011;1940;51.052;13.678;2022-12-18T14:44:25;25.03;;;9.03;;
3849;SDS011;1940;51.052;13.678;2022-12-18T14:46:50;20.40;;;9.50;;
3849;SDS011;1940;51.052;13.678;2022-12-18T14:49:49;25.50;;;11.50;;
3849;SDS011;1940;51.052;13.678;2022-12-18T14:52:18;18.90;;;8.60;;
3849;SDS011;1940;51.052;13.678;2022-12-18T14:54:52;20.37;;;9.40;;
3849;SDS011;1940;51.052;13.678;2022-12-18T14:59:48;22.60;;;9.70;;
3849;SDS011;1940;51.052;13.678;2022-12-18T15:04:53;17.80;;;8.17;;
3849;SDS011;1940;51.052;13.678;2022-12-18T15:07:51;34.77;;;9.80;;
3849;SDS011;1940;51.052;13.678;2022-12-18T15:10:22;21.33;;;8.90;;
3849;SDS011;1940;51.052;13.678;2022-12-18T15:18:11;25.27;;;8.33;;
3849;SDS011;1940;51.052;13.678;2022-12-18T15:20:52;22.87;;;9.60;;
3849;SDS011;1940;51.052;13.678;2022-12-18T15:23:27;20.03;;;9.37;;
3849;SDS011;1940;51.052;13.678;2022-12-18T15:26:14;25.40;;;9.53;;
3849;SDS011;1940;51.052;13.678;2022-12-18T15:28:51;18.60;;;9.27;;
3849;SDS011;1940;51.052;13.678;2022-12-18T15:36:21;17.50;;;8.50;;
3849;SDS011;1940;51.052;13.678;2022-12-18T15:38:49;26.57;;;9.87;;
3849;SDS011;1940;51.052;13.678;2022-12-18T15:41:18;22.27;;;8.90;;
3849;SDS011;1940;51.052;13.678;2022-12-18T15:43:46;25.80;;;9.90;;
3849;SDS011;1940;51.052;13.678;2022-12-18T15:46:14;20.00;;;9.47;;
3849;SDS011;1940;51.052;13.678;2022-12-18T15:48:42;22.80;;;8.80;;
3849;SDS011;1940;51.052;13.678;2022-12-18T15:53:45;27.43;;;9.60;;
3849;SDS011;1940;51.052;13.678;2022-12-18T15:56:13;23.13;;;9.90;;
3849;SDS011;1940;51.052;13.678;2022-12-18T15:58:59;21.60;;;8.90;;
3849;SDS011;1940;51.052;13.678;2022-12-18T16:01:26;22.20;;;9.70;;
3849;SDS011;1940;51.052;13.678;2022-12-18T16:03:53;20.50;;;8.80;;
3849;SDS011;1940;51.052;13.678;2022-12-18T16:06:19;25.50;;;10.93;;
3849;SDS011;1940;51.052;13.678;2022-12-18T16:08:45;26.93;;;10.33;;
3849;SDS011;1940;51.052;13.678;2022-12-18T16:11:16;20.50;;;8.70;;
3849;SDS011;1940;51.052;13.678;2022-12-18T16:13:45;21.03;;;8.97;;
3849;SDS011;1940;51.052;13.678;2022-12-18T16:16:10;23.20;;;8.97;;
3849;SDS011;1940;51.052;13.678;2022-12-18T16:18:36;25.87;;;9.70;;
3849;SDS011;1940;51.052;13.678;2022-12-18T16:21:01;27.33;;;11.53;;
3849;SDS011;1940;51.052;13.678;2022-12-18T16:23:28;18.80;;;9.20;;
3849;SDS011;1940;51.052;13.678;2022-12-18T16:25:53;24.20;;;9.97;;
3849;SDS011;1940;51.052;13.678;2022-12-18T16:28:19;22.60;;;9.97;;
3849;SDS011;1940;51.052;13.678;2022-12-18T16:30:44;22.57;;;9.77;;
3849;SDS011;1940;51.052;13.678;2022-12-18T16:33:10;23.17;;;9.57;;
3849;SDS011;1940;51.052;13.678;2022-12-18T16:35:36;23.07;;;10.07;;
3849;SDS011;1940;51.052;13.678;2022-12-18T16:38:02;22.27;;;10.03;;
3849;SDS011;1940;51.052;13.678;2022-12-18T16:40:27;24.07;;;10.07;;
3849;SDS011;1940;51.052;13.678;2022-12-18T16:42:56;24.57;;;10.00;;
3849;SDS011;1940;51.052;13.678;2022-12-18T16:45:21;21.83;;;10.13;;
3849;SDS011;1940;51.052;13.678;2022-12-18T16:47:47;24.30;;;10.60;;
3849;SDS011;1940;51.052;13.678;2022-12-18T16:50:13;24.73;;;9.57;;
3849;SDS011;1940;51.052;13.678;2022-12-18T16:52:38;22.13;;;9.83;;
3849;SDS011;1940;51.052;13.678;2022-12-18T16:55:04;23.80;;;10.40;;
3849;SDS011;1940;51.052;13.678;2022-12-18T16:57:30;26.80;;;10.30;;
3849;SDS011;1940;51.052;13.678;2022-12-18T16:59:56;24.30;;;9.70;;
3849;SDS011;1940;51.052;13.678;2022-12-18T17:02:23;23.53;;;9.87;;